Time;durP1;ratioP1;P1;durP2;ratioP2;P2;SDS_P1;SDS_P2;PMS_P1;PMS_P2;Temp;Humidity;BMP_temperature;BMP_pressure;BME280_temperature;BME280_humidity;BME280_pressure;Samples;Min_cycle;Max_cycle;Signal;HPM_P1;HPM_P2
2022/01/05 00:02:24;;;;;;;0.00;0.00;;;7.00;99.90;;;;;;5095794;28;20034;-85
2022/01/05 00:04:50;;;;;;;0.20;0.00;;;6.90;99.90;;;;;;5095323;28;20031;-84
2022/01/05 00:07:16;;;;;;;0.00;0.00;;;6.90;99.90;;;;;;5095972;28;20027;-84
2022/01/05 00:09:42;;;;;;;0.20;0.07;;;6.90;99.90;;;;;;5096236;28;20023;-84
2022/01/05 00:12:08;;;;;;;0.20;0.10;;;6.90;99.90;;;;;;5095512;28;20452;-84
2022/01/05 00:14:34;;;;;;;0.10;0.10;;;6.90;99.90;;;;;;5096060;28;20032;-84
2022/01/05 00:17:00;;;;;;;0.10;0.00;;;6.90;99.90;;;;;;5113358;28;20035;-84
2022/01/05 00:19:25;;;;;;;0.10;0.00;;;7.00;99.90;;;;;;5113784;28;20472;-83
2022/01/05 00:21:51;;;;;;;0.10;0.00;;;6.90;99.90;;;;;;5095351;28;20019;-84
2022/01/05 00:24:16;;;;;;;0.10;0.10;;;6.90;99.90;;;;;;5095512;28;20040;-85
2022/01/05 00:26:42;;;;;;;0.10;0.03;;;6.90;99.90;;;;;;5114938;28;20031;-84
2022/01/05 00:29:08;;;;;;;0.00;0.00;;;7.00;99.90;;;;;;5117158;28;20024;-85
2022/01/05 00:31:33;;;;;;;0.10;0.10;;;7.00;99.90;;;;;;5099478;28;20524;-84
2022/01/05 00:33:59;;;;;;;0.20;0.10;;;7.00;99.90;;;;;;5098892;28;20028;-84
2022/01/05 00:36:25;;;;;;;0.20;0.00;;;7.00;99.90;;;;;;5099314;28;20059;-84
2022/01/05 00:38:50;;;;;;;0.60;0.10;;;7.00;99.90;;;;;;5116837;28;20038;-84
2022/01/05 00:41:16;;;;;;;0.93;0.10;;;7.00;99.90;;;;;;5099179;28;20020;-84
2022/01/05 00:43:41;;;;;;;0.10;0.10;;;6.90;99.90;;;;;;5098887;28;20534;-84
2022/01/05 00:46:07;;;;;;;0.10;0.10;;;6.90;99.90;;;;;;5098615;28;20038;-85
2022/01/05 00:48:34;;;;;;;0.77;0.10;;;6.90;99.90;;;;;;5099077;28;20032;-85
2022/01/05 00:51:05;;;;;;;0.63;0.10;;;6.90;99.90;;;;;;5098441;28;20028;-85
2022/01/05 00:53:31;;;;;;;0.20;0.10;;;6.90;99.90;;;;;;5117320;28;20030;-85
2022/01/05 00:55:56;;;;;;;0.23;0.10;;;7.00;99.90;;;;;;5098595;28;20027;-84
2022/01/05 00:58:22;;;;;;;1.50;0.13;;;7.00;99.90;;;;;;5116864;28;20028;-85
2022/01/05 01:00:48;;;;;;;1.17;0.33;;;7.00;99.90;;;;;;5098468;28;20028;-83
2022/01/05 01:03:13;;;;;;;0.20;0.10;;;7.00;99.90;;;;;;5099266;28;20384;-84
2022/01/05 01:05:39;;;;;;;2.80;0.10;;;7.00;99.90;;;;;;5098997;28;20024;-85
2022/01/05 01:08:05;;;;;;;0.10;0.10;;;7.00;99.90;;;;;;5116137;28;20051;-84
2022/01/05 01:10:31;;;;;;;0.27;0.10;;;7.00;99.90;;;;;;5098584;28;20079;-85
2022/01/05 01:12:57;;;;;;;0.43;0.13;;;7.00;99.90;;;;;;5097898;28;20032;-85
2022/01/05 01:15:23;;;;;;;0.17;0.13;;;7.10;99.90;;;;;;5098574;28;20035;-85
2022/01/05 01:17:48;;;;;;;0.13;0.10;;;7.00;99.90;;;;;;5098334;28;20030;-83
2022/01/05 01:20:14;;;;;;;1.83;0.20;;;7.00;99.90;;;;;;5116658;28;20027;-85
2022/01/05 01:22:40;;;;;;;0.57;0.17;;;7.00;99.90;;;;;;5116347;28;20039;-84
2022/01/05 01:25:06;;;;;;;0.10;0.10;;;7.00;99.90;;;;;;5097964;28;20020;-85
2022/01/05 01:27:33;;;;;;;0.30;0.13;;;6.90;99.90;;;;;;5098400;28;20035;-85
2022/01/05 01:29:58;;;;;;;0.20;0.20;;;6.90;99.90;;;;;;5098000;28;20028;-84
2022/01/05 01:32:24;;;;;;;0.83;0.20;;;6.90;99.90;;;;;;5116217;28;20024;-85
2022/01/05 01:34:50;;;;;;;0.20;0.20;;;6.80;99.90;;;;;;5097653;28;20475;-84
2022/01/05 01:37:16;;;;;;;0.33;0.20;;;6.80;99.90;;;;;;5097885;28;20038;-84
2022/01/05 01:39:42;;;;;;;0.10;0.10;;;6.80;99.90;;;;;;5115511;28;20030;-85
2022/01/05 01:42:08;;;;;;;0.13;0.10;;;6.80;99.90;;;;;;5097697;28;20023;-84
2022/01/05 01:44:33;;;;;;;0.40;0.27;;;6.70;99.90;;;;;;5116070;28;20503;-85
2022/01/05 01:46:59;;;;;;;0.10;0.10;;;6.70;99.90;;;;;;5097424;28;20101;-85
2022/01/05 01:49:25;;;;;;;0.50;0.30;;;6.70;99.90;;;;;;5098037;28;20035;-85
2022/01/05 01:51:50;;;;;;;0.40;0.20;;;6.70;99.90;;;;;;5097396;28;20020;-83
2022/01/05 01:54:16;;;;;;;0.47;0.30;;;6.70;99.90;;;;;;5115815;28;20423;-85
2022/01/05 01:56:46;;;;;;;0.40;0.30;;;6.70;99.90;;;;;;5097940;28;20040;-85
2022/01/05 01:59:12;;;;;;;0.50;0.40;;;6.70;99.90;;;;;;5097322;28;20024;-85
2022/01/05 02:01:39;;;;;;;1.07;0.40;;;6.80;99.90;;;;;;5097911;28;20024;-85
2022/01/05 02:04:05;;;;;;;0.53;0.30;;;6.70;99.90;;;;;;5097293;28;20027;-85
2022/01/05 02:06:31;;;;;;;0.43;0.30;;;6.70;99.90;;;;;;5097435;28;20035;-84
2022/01/05 02:08:58;;;;;;;0.53;0.40;;;6.70;99.90;;;;;;5097127;28;20030;-84
2022/01/05 02:11:25;;;;;;;0.60;0.40;;;6.80;99.90;;;;;;5115068;28;20020;-85
2022/01/05 02:13:51;;;;;;;0.40;0.40;;;6.70;99.90;;;;;;5097342;28;20031;-85
2022/01/05 02:16:25;;;;;;;1.17;0.40;;;6.80;99.90;;;;;;5097142;28;20477;-85
2022/01/05 02:19:00;;;;;;;0.47;0.40;;;6.80;99.90;;;;;;5097653;28;20169;-85
2022/01/05 02:21:43;;;;;;;0.80;0.50;;;6.80;99.90;;;;;;5115343;28;20023;-85
2022/01/05 02:24:10;;;;;;;0.87;0.40;;;6.80;99.90;;;;;;5096708;28;20058;-85
2022/01/05 02:26:37;;;;;;;1.03;0.50;;;6.80;99.90;;;;;;5097294;28;20381;-85
2022/01/05 02:29:04;;;;;;;1.30;0.50;;;6.80;99.90;;;;;;5096744;28;20024;-85
2022/01/05 02:31:30;;;;;;;1.40;0.30;;;6.80;99.90;;;;;;5097208;28;20020;-85
2022/01/05 02:33:55;;;;;;;0.73;0.40;;;6.80;99.90;;;;;;5114748;28;20026;-85
2022/01/05 02:36:21;;;;;;;0.67;0.40;;;6.80;99.90;;;;;;5097044;28;20032;-85
2022/01/05 02:38:49;;;;;;;0.80;0.40;;;6.70;99.90;;;;;;5115066;28;20102;-85
2022/01/05 02:41:15;;;;;;;1.70;0.53;;;6.70;99.90;;;;;;5114513;28;20453;-85
2022/01/05 02:43:42;;;;;;;0.60;0.37;;;6.70;99.90;;;;;;5096952;28;20028;-85
2022/01/05 02:46:13;;;;;;;0.40;0.40;;;6.70;99.90;;;;;;5096598;28;20028;-85
2022/01/05 02:48:40;;;;;;;0.50;0.50;;;6.70;99.90;;;;;;5096738;28;20023;-85
2022/01/05 02:51:06;;;;;;;1.40;0.53;;;6.70;99.90;;;;;;5114023;28;20106;-85
2022/01/05 02:53:32;;;;;;;1.43;0.80;;;6.70;99.90;;;;;;5096983;28;20357;-85
2022/01/05 02:55:58;;;;;;;0.43;0.37;;;6.60;99.90;;;;;;5096163;28;20028;-85
2022/01/05 02:58:24;;;;;;;0.60;0.50;;;6.60;99.90;;;;;;5096869;28;20479;-85
2022/01/05 03:00:50;;;;;;;1.00;0.50;;;6.60;99.90;;;;;;5096925;28;20475;-85
2022/01/05 03:03:15;;;;;;;0.80;0.50;;;6.70;99.90;;;;;;5096460;28;20498;-85
2022/01/05 03:05:41;;;;;;;0.57;0.47;;;6.70;99.90;;;;;;5114305;28;20015;-85
2022/01/05 03:08:07;;;;;;;2.13;0.50;;;6.60;99.90;;;;;;5096151;28;20460;-85
2022/01/05 03:10:33;;;;;;;2.83;0.63;;;6.60;99.90;;;;;;5097031;28;20027;-85
2022/01/05 03:12:59;;;;;;;1.00;0.53;;;6.70;99.90;;;;;;5095932;28;20024;-84
2022/01/05 03:15:24;;;;;;;1.10;0.40;;;6.60;99.90;;;;;;5096717;28;20032;-85
2022/01/05 03:17:50;;;;;;;1.33;0.60;;;6.60;99.90;;;;;;5096579;28;20491;-85
2022/01/05 03:20:17;;;;;;;0.80;0.40;;;6.60;99.90;;;;;;5095718;28;20096;-85
2022/01/05 03:22:44;;;;;;;0.80;0.43;;;6.60;99.90;;;;;;5114229;28;20024;-85
2022/01/05 03:25:15;;;;;;;3.47;0.60;;;6.60;99.90;;;;;;5095747;28;20031;-85
2022/01/05 03:27:46;;;;;;;1.50;0.60;;;6.60;99.90;;;;;;5114653;28;20027;-85
2022/01/05 03:30:14;;;;;;;0.80;0.40;;;6.70;99.90;;;;;;5095840;28;20149;-85
2022/01/05 03:33:25;;;;;;;0.57;0.40;;;6.70;99.90;;;;;;5114626;28;20020;-85
2022/01/05 03:35:28;;;;;;;0.50;0.40;;;6.70;99.90;;;;;;5107115;28;20036;-85
2022/01/05 03:37:54;;;;;;;0.63;0.40;;;6.70;99.90;;;;;;5114262;28;20024;-85
2022/01/05 03:40:20;;;;;;;0.47;0.40;;;6.70;99.90;;;;;;5114441;28;20030;-85
2022/01/05 03:42:46;;;;;;;2.83;0.67;;;6.70;99.90;;;;;;5096239;28;20076;-85
2022/01/05 03:45:12;;;;;;;0.40;0.30;;;6.80;99.90;;;;;;5113900;28;20031;-85
2022/01/05 03:47:37;;;;;;;0.60;0.40;;;6.80;99.90;;;;;;5114712;28;20523;-85
2022/01/05 03:50:04;;;;;;;0.63;0.50;;;6.80;99.90;;;;;;5095537;28;20031;-85
2022/01/05 03:52:30;;;;;;;0.83;0.37;;;6.80;99.90;;;;;;5096326;28;20062;-85
2022/01/05 03:54:55;;;;;;;0.60;0.50;;;6.80;99.90;;;;;;5096349;28;20024;-85
2022/01/05 03:57:21;;;;;;;1.67;0.60;;;6.80;99.90;;;;;;5095842;28;20036;-85
2022/01/05 03:59:47;;;;;;;0.97;0.47;;;6.80;99.90;;;;;;5096329;28;20084;-85
2022/01/05 04:02:12;;;;;;;0.40;0.30;;;6.80;99.90;;;;;;5097572;28;20030;-85
2022/01/05 04:04:38;;;;;;;0.70;0.50;;;6.80;99.90;;;;;;5118187;28;20024;-85
2022/01/05 04:07:04;;;;;;;0.67;0.43;;;6.80;99.90;;;;;;5099718;28;20030;-84
2022/01/05 04:09:30;;;;;;;1.80;0.60;;;6.90;99.90;;;;;;5099940;28;20526;-85
2022/01/05 04:11:56;;;;;;;1.20;0.40;;;6.90;99.90;;;;;;5099921;28;20457;-85
2022/01/05 04:14:21;;;;;;;2.30;0.50;;;6.90;99.90;;;;;;5099549;28;20034;-85
2022/01/05 04:16:47;;;;;;;0.10;0.10;;;6.90;99.90;;;;;;5099874;28;20036;-84
2022/01/05 04:19:12;;;;;;;0.10;0.10;;;6.70;99.90;;;;;;5117310;28;20495;-84
2022/01/05 04:21:38;;;;;;;0.00;0.00;;;6.50;99.90;;;;;;5118082;28;20030;-85
2022/01/05 04:24:04;;;;;;;0.57;0.10;;;6.50;99.90;;;;;;5117209;28;20127;-84
2022/01/05 04:26:30;;;;;;;0.10;0.10;;;6.40;99.90;;;;;;5117625;28;20134;-85
2022/01/05 04:28:55;;;;;;;0.20;0.10;;;6.30;99.90;;;;;;5099568;28;20024;-85
2022/01/05 04:31:21;;;;;;;0.50;0.10;;;6.30;99.90;;;;;;5117011;28;20036;-85
2022/01/05 04:33:48;;;;;;;0.57;0.20;;;6.30;99.90;;;;;;5099567;28;20092;-85
2022/01/05 04:36:13;;;;;;;0.00;0.00;;;6.30;99.90;;;;;;5098864;28;20027;-85
2022/01/05 04:38:39;;;;;;;0.00;0.00;;;6.20;99.90;;;;;;5099434;28;20452;-85
2022/01/05 04:41:04;;;;;;;0.10;0.10;;;6.20;99.90;;;;;;5099087;28;20096;-85
2022/01/05 04:43:30;;;;;;;0.10;0.10;;;6.10;99.90;;;;;;5117563;28;20028;-85
2022/01/05 04:45:56;;;;;;;0.93;0.10;;;6.10;99.90;;;;;;5117238;28;20074;-85
2022/01/05 04:48:22;;;;;;;0.47;0.10;;;6.00;99.90;;;;;;5098648;28;20027;-85
2022/01/05 04:50:48;;;;;;;0.00;0.00;;;6.00;99.90;;;;;;5099132;28;20034;-85
2022/01/05 04:53:14;;;;;;;0.20;0.10;;;6.00;99.90;;;;;;5098593;28;20372;-84
2022/01/05 04:55:41;;;;;;;0.07;0.03;;;5.90;99.90;;;;;;5099190;28;20028;-85
2022/01/05 04:58:06;;;;;;;1.07;0.20;;;5.90;99.90;;;;;;5098622;28;20027;-85
2022/01/05 05:00:32;;;;;;;1.03;0.10;;;5.90;99.90;;;;;;5098900;28;20024;-85
2022/01/05 05:02:57;;;;;;;0.97;0.23;;;5.90;99.90;;;;;;5098918;28;20112;-85
2022/01/05 05:05:23;;;;;;;0.10;0.10;;;5.90;99.90;;;;;;5098367;28;20065;-85
2022/01/05 05:07:49;;;;;;;0.10;0.07;;;5.90;99.90;;;;;;5099215;28;20038;-84
2022/01/05 05:10:14;;;;;;;0.20;0.20;;;6.00;99.90;;;;;;5116296;28;20030;-84
2022/01/05 05:12:40;;;;;;;0.10;0.10;;;5.90;99.90;;;;;;5098477;28;20034;-85
2022/01/05 05:15:06;;;;;;;0.20;0.07;;;5.90;99.90;;;;;;5116244;28;20510;-85
2022/01/05 05:17:32;;;;;;;0.40;0.10;;;6.00;99.90;;;;;;5098490;28;20062;-85
2022/01/05 05:19:57;;;;;;;0.30;0.10;;;5.90;99.90;;;;;;5098467;28;20024;-86
2022/01/05 05:22:23;;;;;;;0.90;0.30;;;5.90;99.90;;;;;;5098122;28;20126;-85
2022/01/05 05:24:49;;;;;;;1.30;0.27;;;5.90;99.90;;;;;;5098181;28;20083;-85
2022/01/05 05:27:14;;;;;;;0.30;0.10;;;5.90;99.90;;;;;;5098180;28;20031;-84
2022/01/05 05:29:40;;;;;;;2.43;0.20;;;5.90;99.90;;;;;;5098281;28;20020;-85
2022/01/05 05:32:06;;;;;;;0.47;0.23;;;5.90;99.90;;;;;;5098348;28;20028;-84
2022/01/05 05:34:32;;;;;;;0.50;0.20;;;5.80;99.90;;;;;;5098113;28;20055;-85
2022/01/05 05:36:58;;;;;;;1.13;0.30;;;5.70;99.90;;;;;;5098119;28;20066;-85
2022/01/05 05:39:23;;;;;;;0.20;0.10;;;5.70;99.90;;;;;;5097858;28;20169;-84
2022/01/05 05:41:49;;;;;;;0.57;0.10;;;5.70;99.90;;;;;;5116158;28;20492;-85
2022/01/05 05:44:14;;;;;;;0.10;0.10;;;5.60;99.90;;;;;;5097513;28;20023;-84
2022/01/05 05:46:40;;;;;;;1.50;0.93;;;5.50;99.90;;;;;;5116153;28;20065;-85
2022/01/05 05:49:06;;;;;;;1.70;0.30;;;5.50;99.90;;;;;;5097647;28;20026;-84
2022/01/05 05:51:31;;;;;;;3.90;1.37;;;5.50;99.90;;;;;;5097948;28;20461;-85
2022/01/05 05:53:57;;;;;;;2.40;0.60;;;5.40;99.90;;;;;;5115856;28;20024;-85
2022/01/05 05:56:22;;;;;;;0.70;0.70;;;5.40;99.90;;;;;;5097436;28;20031;-85
2022/01/05 05:58:48;;;;;;;1.50;0.20;;;5.40;99.90;;;;;;5097700;28;20073;-85
2022/01/05 06:01:14;;;;;;;1.67;0.50;;;5.40;99.90;;;;;;5097265;28;20028;-84
2022/01/05 06:03:39;;;;;;;0.97;0.20;;;5.40;99.90;;;;;;5097591;28;20030;-85
2022/01/05 06:06:05;;;;;;;1.03;0.20;;;5.40;99.90;;;;;;5097403;28;20028;-83
2022/01/05 06:08:30;;;;;;;0.20;0.10;;;5.40;99.90;;;;;;5097622;28;20027;-85
2022/01/05 06:10:56;;;;;;;0.60;0.27;;;5.40;99.90;;;;;;5097626;28;20507;-85
2022/01/05 06:13:22;;;;;;;0.30;0.20;;;5.30;99.90;;;;;;5115197;28;20023;-85
2022/01/05 06:15:47;;;;;;;0.87;0.40;;;5.20;99.90;;;;;;5097471;28;20039;-85
2022/01/05 06:18:13;;;;;;;1.13;0.20;;;5.20;99.90;;;;;;5097138;28;20032;-85
2022/01/05 06:20:38;;;;;;;2.10;0.27;;;5.00;99.90;;;;;;5097569;28;20023;-85
2022/01/05 06:23:04;;;;;;;2.80;0.40;;;5.00;99.90;;;;;;5093569;28;20040;-85
2022/01/05 06:25:30;;;;;;;4.97;0.40;;;4.90;99.90;;;;;;5092598;28;20024;-85
2022/01/05 06:27:55;;;;;;;1.20;0.40;;;4.90;99.90;;;;;;5093738;28;20035;-85
2022/01/05 06:30:21;;;;;;;0.50;0.50;;;4.90;99.90;;;;;;5093444;28;20115;-85
2022/01/05 06:32:47;;;;;;;3.07;0.50;;;4.80;99.90;;;;;;5093974;28;20384;-85
2022/01/05 06:35:14;;;;;;;3.83;0.90;;;4.70;99.90;;;;;;5093398;28;20024;-85
2022/01/05 06:37:40;;;;;;;2.03;0.50;;;4.80;99.90;;;;;;5094019;28;20028;-85
2022/01/05 06:40:06;;;;;;;1.77;0.50;;;4.70;99.90;;;;;;5093926;28;20064;-86
2022/01/05 06:42:32;;;;;;;3.50;0.97;;;4.80;99.90;;;;;;5092903;28;20039;-85
2022/01/05 06:44:58;;;;;;;1.60;1.03;;;4.80;99.90;;;;;;5093670;28;20385;-86
2022/01/05 06:47:23;;;;;;;4.10;0.97;;;4.70;99.90;;;;;;5093187;28;20028;-85
2022/01/05 06:49:49;;;;;;;3.77;0.70;;;4.60;99.90;;;;;;5093574;28;20426;-85
2022/01/05 06:52:15;;;;;;;4.83;1.50;;;4.60;99.90;;;;;;5095272;28;20024;-85
2022/01/05 06:54:40;;;;;;;2.17;0.80;;;4.60;99.90;;;;;;5093707;28;20020;-84
2022/01/05 06:57:07;;;;;;;2.60;1.40;;;4.60;99.90;;;;;;5094538;28;20031;-85
2022/01/05 06:59:33;;;;;;;8.33;1.23;;;4.60;99.90;;;;;;5093354;28;20032;-85
2022/01/05 07:01:59;;;;;;;3.07;0.97;;;4.50;99.90;;;;;;5093641;28;20030;-85
2022/01/05 07:04:24;;;;;;;2.57;1.00;;;4.50;99.90;;;;;;5093876;28;20020;-85
2022/01/05 07:06:50;;;;;;;5.73;0.80;;;4.60;99.90;;;;;;5093225;28;20028;-85
2022/01/05 07:09:15;;;;;;;5.57;1.03;;;4.60;99.90;;;;;;5092802;28;20059;-85
2022/01/05 07:11:41;;;;;;;3.67;0.97;;;4.50;99.90;;;;;;5094130;28;20024;-85
2022/01/05 07:14:07;;;;;;;4.00;0.90;;;4.60;99.90;;;;;;5094499;28;20041;-85
2022/01/05 07:16:33;;;;;;;3.37;1.20;;;4.50;99.90;;;;;;5092401;28;20036;-85
2022/01/05 07:18:58;;;;;;;3.53;0.90;;;4.60;99.90;;;;;;5094048;28;20462;-85
2022/01/05 07:21:24;;;;;;;1.63;0.90;;;4.50;99.90;;;;;;5092596;28;20384;-85
2022/01/05 07:23:49;;;;;;;3.40;0.97;;;4.50;99.90;;;;;;5092668;28;20048;-85
2022/01/05 07:26:15;;;;;;;5.63;1.83;;;4.50;99.90;;;;;;5092932;28;20031;-85
2022/01/05 07:28:41;;;;;;;1.67;0.80;;;4.50;99.90;;;;;;5094262;28;20053;-85
2022/01/05 07:31:07;;;;;;;4.20;1.60;;;4.60;99.90;;;;;;5093284;28;20026;-85
2022/01/05 07:33:32;;;;;;;4.27;1.07;;;4.60;99.90;;;;;;5092767;28;20034;-85
2022/01/05 07:35:58;;;;;;;3.77;1.00;;;4.60;99.90;;;;;;5095539;28;20073;-85
2022/01/05 07:38:23;;;;;;;1.93;0.90;;;4.60;99.90;;;;;;5096593;28;20028;-85
2022/01/05 07:40:49;;;;;;;2.43;1.00;;;4.50;99.90;;;;;;5098058;28;20064;-85
2022/01/05 07:43:15;;;;;;;2.37;0.90;;;4.50;99.90;;;;;;5097346;28;20108;-84
2022/01/05 07:45:40;;;;;;;4.07;1.27;;;4.50;99.90;;;;;;5097109;28;20047;-85
2022/01/05 07:48:06;;;;;;;1.77;1.00;;;4.50;99.90;;;;;;5097176;28;20111;-84
2022/01/05 07:50:32;;;;;;;3.17;0.90;;;4.50;99.90;;;;;;5096574;28;20032;-84
2022/01/05 07:53:01;;;;;;;5.07;1.00;;;4.50;99.90;;;;;;5097152;28;20078;-85
2022/01/05 07:55:28;;;;;;;2.67;0.87;;;4.50;99.90;;;;;;5096545;28;20078;-84
2022/01/05 07:57:53;;;;;;;1.80;0.90;;;4.50;99.90;;;;;;5096718;28;20036;-85
2022/01/05 08:00:19;;;;;;;3.93;0.97;;;4.50;99.90;;;;;;5096198;28;20039;-85
2022/01/05 08:02:45;;;;;;;2.80;0.90;;;4.50;99.90;;;;;;5096717;28;20027;-85
2022/01/05 08:05:10;;;;;;;1.57;0.80;;;4.50;99.90;;;;;;5096674;28;20028;-85
2022/01/05 08:07:36;;;;;;;3.87;1.03;;;4.50;99.90;;;;;;5096104;28;20028;-85
2022/01/05 08:10:02;;;;;;;4.63;1.20;;;4.40;99.50;;;;;;5096611;28;20483;-85
2022/01/05 08:12:28;;;;;;;3.40;1.10;;;4.30;99.10;;;;;;5096521;28;20028;-85
2022/01/05 08:14:53;;;;;;;6.73;1.17;;;4.20;99.00;;;;;;5097623;28;20089;-85
2022/01/05 08:17:19;;;;;;;4.57;1.00;;;4.20;98.80;;;;;;5095947;28;20093;-85
2022/01/05 08:19:45;;;;;;;2.90;1.10;;;4.20;97.70;;;;;;5096543;28;20028;-85
2022/01/05 08:22:11;;;;;;;4.97;1.23;;;4.20;97.90;;;;;;5096143;28;20411;-85
2022/01/05 08:24:37;;;;;;;3.70;1.13;;;4.20;97.70;;;;;;5113955;28;20480;-86
2022/01/05 08:27:03;;;;;;;1.73;0.80;;;4.20;96.60;;;;;;5102166;28;20034;-84
2022/01/05 08:29:28;;;;;;;3.30;0.73;;;4.10;95.90;;;;;;5099138;28;20460;-85
2022/01/05 08:31:54;;;;;;;5.20;1.00;;;4.10;96.10;;;;;;5099728;28;20019;-85
2022/01/05 08:34:20;;;;;;;7.03;0.93;;;4.10;95.30;;;;;;5098868;28;20024;-85
2022/01/05 08:36:47;;;;;;;10.93;1.43;;;4.10;94.90;;;;;;5099560;28;20023;-86
2022/01/05 08:39:14;;;;;;;3.00;0.97;;;4.10;94.40;;;;;;5099234;28;20035;-84
2022/01/05 08:41:39;;;;;;;4.20;1.13;;;4.10;94.00;;;;;;5099103;28;20544;-84
2022/01/05 08:44:05;;;;;;;5.63;1.80;;;4.10;93.40;;;;;;5098878;28;20171;-85
2022/01/05 08:46:31;;;;;;;6.37;1.13;;;4.10;93.50;;;;;;5098526;28;20035;-84
2022/01/05 08:48:56;;;;;;;2.90;0.90;;;4.10;92.70;;;;;;5098699;28;20028;-85
2022/01/05 08:51:22;;;;;;;6.00;0.90;;;4.10;92.40;;;;;;5116622;28;20024;-85
2022/01/05 08:53:48;;;;;;;5.40;0.93;;;4.10;93.80;;;;;;5099207;28;20019;-86
2022/01/05 08:56:13;;;;;;;3.13;0.80;;;4.00;93.30;;;;;;5099019;28;20127;-86
2022/01/05 08:58:39;;;;;;;5.47;1.10;;;4.00;94.20;;;;;;5116601;28;20036;-85
2022/01/05 09:01:05;;;;;;;5.60;1.10;;;4.00;93.30;;;;;;5099347;28;20429;-85
2022/01/05 09:03:31;;;;;;;4.97;0.90;;;4.10;93.70;;;;;;5116231;28;20024;-84
2022/01/05 09:05:56;;;;;;;6.60;1.10;;;4.00;93.40;;;;;;5099033;28;20487;-84
2022/01/05 09:08:22;;;;;;;4.77;1.00;;;4.00;93.30;;;;;;5116235;28;20023;-85
2022/01/05 09:10:48;;;;;;;5.43;1.17;;;4.00;93.40;;;;;;5116689;28;20102;-85
2022/01/05 09:13:14;;;;;;;4.87;1.40;;;4.10;93.90;;;;;;5098895;28;20027;-85
2022/01/05 09:15:41;;;;;;;4.77;1.40;;;4.00;93.20;;;;;;5098109;28;20122;-85
2022/01/05 09:18:07;;;;;;;4.00;0.83;;;4.10;93.50;;;;;;5098865;28;20042;-85
2022/01/05 09:20:32;;;;;;;6.63;1.53;;;4.10;93.20;;;;;;5098105;28;20087;-84
2022/01/05 09:22:58;;;;;;;5.57;1.00;;;4.00;93.50;;;;;;5116648;28;20051;-85
2022/01/05 09:25:24;;;;;;;5.77;0.83;;;4.00;93.60;;;;;;5098204;28;20027;-84
2022/01/05 09:27:52;;;;;;;6.90;1.10;;;4.00;94.40;;;;;;5116538;28;20055;-85
2022/01/05 09:30:18;;;;;;;6.20;1.20;;;4.00;93.70;;;;;;5098203;28;20019;-83
2022/01/05 09:32:44;;;;;;;5.30;1.20;;;4.10;94.40;;;;;;5116209;28;20099;-85
2022/01/05 09:35:15;;;;;;;3.87;0.87;;;4.00;95.10;;;;;;5098260;28;20062;-84
2022/01/05 09:37:52;;;;;;;4.07;1.10;;;4.10;95.30;;;;;;5115492;28;20537;-84
2022/01/05 09:43:04;;;;;;;7.30;2.07;;;4.10;95.00;;;;;;5115831;28;20034;-84
2022/01/05 09:45:33;;;;;;;6.83;1.57;;;4.10;95.40;;;;;;5097799;28;20028;-84
2022/01/05 09:48:08;;;;;;;5.80;1.17;;;4.10;95.30;;;;;;5098058;28;20032;-84
2022/01/05 09:50:36;;;;;;;3.93;0.87;;;4.20;95.40;;;;;;5097394;28;20077;-84
2022/01/05 09:53:04;;;;;;;6.47;1.50;;;4.20;96.30;;;;;;5098000;28;20024;-84
2022/01/05 09:55:29;;;;;;;2.60;0.90;;;4.20;96.00;;;;;;5097454;28;20024;-84
2022/01/05 09:57:55;;;;;;;9.83;1.70;;;4.20;96.20;;;;;;5098014;28;20031;-84
2022/01/05 10:00:21;;;;;;;7.97;1.40;;;4.30;96.10;;;;;;5096466;28;20120;-83
2022/01/05 10:02:49;;;;;;;6.10;1.53;;;4.30;95.70;;;;;;5115425;28;20028;-84
2022/01/05 10:05:16;;;;;;;7.13;1.13;;;4.20;95.90;;;;;;5097912;28;20110;-84
2022/01/05 10:07:42;;;;;;;4.80;1.53;;;4.10;95.70;;;;;;5097374;28;20122;-84
2022/01/05 10:10:09;;;;;;;7.07;1.13;;;4.10;95.40;;;;;;5098064;28;20131;-84
2022/01/05 10:12:35;;;;;;;2.93;0.97;;;4.20;95.50;;;;;;5097279;28;20460;-84
2022/01/05 10:15:03;;;;;;;6.70;1.50;;;4.10;95.20;;;;;;5097712;28;20024;-84
2022/01/05 10:17:31;;;;;;;6.63;1.27;;;4.10;96.20;;;;;;5097182;28;20077;-84
2022/01/05 10:20:01;;;;;;;5.37;1.50;;;4.20;96.00;;;;;;5097372;28;20126;-84
2022/01/05 10:22:32;;;;;;;5.83;1.20;;;4.30;95.00;;;;;;5115067;28;20028;-84
2022/01/05 10:24:58;;;;;;;8.40;1.20;;;4.20;95.50;;;;;;5093827;28;20093;-83
2022/01/05 10:27:26;;;;;;;8.30;1.30;;;4.10;95.00;;;;;;5094576;28;20112;-84
2022/01/05 10:29:57;;;;;;;5.67;1.40;;;4.10;96.50;;;;;;5094936;28;20020;-85
2022/01/05 10:32:25;;;;;;;6.07;1.53;;;4.20;97.00;;;;;;5093530;28;20514;-83
2022/01/05 10:35:08;;;;;;;8.83;1.47;;;4.20;95.30;;;;;;5095027;28;20070;-84
2022/01/05 10:37:35;;;;;;;4.77;1.53;;;4.30;96.40;;;;;;5094212;28;20028;-84
2022/01/05 10:40:11;;;;;;;8.57;1.67;;;4.30;96.80;;;;;;5093648;28;20028;-85
2022/01/05 10:42:38;;;;;;;5.37;1.30;;;4.20;96.60;;;;;;5092804;28;20028;-84
2022/01/05 10:45:10;;;;;;;5.80;1.13;;;4.30;96.20;;;;;;5093545;28;20119;-84
2022/01/05 10:47:36;;;;;;;;;;;4.30;95.10;;;;;;5093489;28;20028;-84
2022/01/05 10:50:05;;;;;;;7.60;1.40;;;4.30;93.50;;;;;;5093526;28;20387;-84
2022/01/05 10:52:33;;;;;;;6.60;1.20;;;4.20;94.20;;;;;;5093647;28;20492;-84
2022/01/05 10:55:17;;;;;;;7.27;1.33;;;4.10;94.90;;;;;;5093492;28;20465;-84
2022/01/05 10:58:02;;;;;;;6.43;1.37;;;4.10;94.40;;;;;;5093136;28;20109;-84
2022/01/05 11:00:57;;;;;;;4.93;1.77;;;4.00;94.60;;;;;;5094210;28;20080;-84
2022/01/05 11:03:24;;;;;;;10.73;1.37;;;4.10;94.50;;;;;;5075959;28;20507;-83
2022/01/05 11:06:02;;;;;;;8.93;1.60;;;4.10;94.60;;;;;;5094218;28;20053;-85
2022/01/05 11:08:29;;;;;;;9.00;1.90;;;4.10;94.30;;;;;;5092938;28;20118;-84
2022/01/05 11:10:54;;;;;;;4.77;1.30;;;4.30;94.70;;;;;;5093094;28;20047;-86
2022/01/05 11:13:20;;;;;;;7.13;1.50;;;4.30;94.80;;;;;;5093228;28;20477;-86
2022/01/05 11:15:45;;;;;;;6.30;1.77;;;4.40;94.40;;;;;;5093616;28;20109;-86
2022/01/05 11:18:21;;;;;;;6.60;1.20;;;4.40;93.40;;;;;;5094285;28;20480;-85
2022/01/05 11:20:52;;;;;;;3.83;1.10;;;4.30;93.80;;;;;;5093828;28;20108;-86
2022/01/05 11:23:22;;;;;;;3.30;1.30;;;4.20;94.20;;;;;;5092587;28;20044;-86
2022/01/05 11:25:49;;;;;;;4.83;1.00;;;4.00;92.50;;;;;;5092708;28;20024;-86
2022/01/05 11:28:17;;;;;;;7.60;2.10;;;4.00;93.20;;;;;;5094118;28;20028;-86
2022/01/05 11:30:44;;;;;;;4.43;1.10;;;4.10;93.30;;;;;;5093542;28;20024;-84
2022/01/05 11:33:10;;;;;;;5.63;1.13;;;4.20;92.70;;;;;;5093061;28;20024;-84
2022/01/05 11:35:35;;;;;;;10.20;1.57;;;4.30;92.30;;;;;;5093557;28;20059;-84
2022/01/05 11:38:03;;;;;;;5.60;1.30;;;4.40;91.40;;;;;;5093804;28;20456;-84
2022/01/05 11:40:30;;;;;;;8.77;1.43;;;4.30;91.00;;;;;;5092571;28;20554;-85
2022/01/05 11:43:09;;;;;;;6.97;1.40;;;4.20;92.30;;;;;;5092943;28;20024;-84
2022/01/05 11:45:44;;;;;;;9.10;1.40;;;4.40;92.60;;;;;;5092785;28;20064;-85
2022/01/05 11:48:23;;;;;;;4.43;1.13;;;4.40;92.90;;;;;;5093080;28;20027;-85
2022/01/05 11:50:50;;;;;;;3.10;1.30;;;4.40;92.10;;;;;;5093629;28;20032;-85
2022/01/05 11:53:17;;;;;;;5.40;1.40;;;4.30;92.50;;;;;;5092810;28;20473;-86
2022/01/05 11:55:58;;;;;;;7.07;1.47;;;4.20;92.80;;;;;;5092613;28;20043;-85
2022/01/05 11:58:28;;;;;;;4.10;1.50;;;4.30;93.70;;;;;;5093853;28;20175;-85
2022/01/05 12:01:12;;;;;;;8.20;1.60;;;4.40;94.60;;;;;;5093032;28;20032;-85
2022/01/05 12:03:59;;;;;;;6.17;1.20;;;4.40;94.80;;;;;;5093228;28;20024;-85
2022/01/05 12:06:26;;;;;;;4.63;1.47;;;4.50;94.80;;;;;;5092832;28;20032;-85
2022/01/05 12:08:57;;;;;;;7.80;1.60;;;4.70;95.30;;;;;;5093077;28;20115;-85
2022/01/05 12:11:43;;;;;;;7.07;1.30;;;4.70;94.80;;;;;;5092760;28;20024;-85
2022/01/05 12:14:35;;;;;;;6.53;1.40;;;4.80;95.00;;;;;;5092593;28;20472;-85
2022/01/05 12:17:06;;;;;;;3.88;1.33;;;4.90;94.60;;;;;;5092715;28;20476;-85
2022/01/05 12:19:47;;;;;;;9.07;1.30;;;5.00;94.00;;;;;;5092098;28;20059;-85
2022/01/05 12:22:21;;;;;;;6.30;1.30;;;5.10;93.00;;;;;;5092876;28;20561;-85
2022/01/05 12:24:52;;;;;;;4.50;1.33;;;5.10;92.70;;;;;;5095456;28;20054;-85
2022/01/05 12:27:32;;;;;;;4.55;1.17;;;5.10;92.70;;;;;;5096412;28;20089;-85
2022/01/05 12:30:00;;;;;;;6.10;1.37;;;5.40;92.50;;;;;;5096581;28;20035;-86
2022/01/05 12:32:38;;;;;;;8.50;1.13;;;5.30;89.80;;;;;;5096258;28;20035;-86
2022/01/05 12:35:27;;;;;;;5.70;1.00;;;5.30;88.80;;;;;;5096060;28;20040;-86
2022/01/05 12:38:04;;;;;;;3.53;1.10;;;5.40;90.00;;;;;;5096587;28;20056;-87
2022/01/05 12:40:35;;;;;;;3.73;0.90;;;5.40;86.90;;;;;;5095861;28;20144;-85
2022/01/05 12:43:06;;;;;;;6.90;1.20;;;5.30;88.10;;;;;;5096037;28;20114;-86
2022/01/05 12:45:50;;;;;;;3.35;1.27;;;5.20;87.80;;;;;;5096601;28;20024;-86
2022/01/05 12:48:35;;;;;;;7.63;1.07;;;5.20;88.90;;;;;;5096837;28;20016;-86
2022/01/05 12:51:22;;;;;;;7.40;1.40;;;5.00;90.50;;;;;;5096162;28;20113;-86
2022/01/05 12:53:56;;;;;;;4.53;1.20;;;4.80;90.80;;;;;;5095400;28;20056;-86
2022/01/05 12:56:34;;;;;;;6.70;1.17;;;4.80;91.50;;;;;;5095757;28;20032;-86
2022/01/05 12:59:02;;;;;;;5.57;1.47;;;4.70;92.60;;;;;;5095779;28;20031;-86
2022/01/05 13:01:29;;;;;;;8.00;1.30;;;4.60;92.20;;;;;;5096602;28;20023;-86
2022/01/05 13:03:57;;;;;;;8.33;1.47;;;4.70;93.10;;;;;;5095250;28;20032;-85